sensor_id;sensor_type;location;lat;lon;timestamp;temperature;humidity
51863;DHT22;37900;52.996;6.278;2023-07-13T00:00:04;21.70;91.70
51863;DHT22;37900;52.996;6.278;2023-07-13T00:02:34;21.70;91.80
51863;DHT22;37900;52.996;6.278;2023-07-13T00:05:00;21.70;91.80
51863;DHT22;37900;52.996;6.278;2023-07-13T00:07:26;21.70;91.80
51863;DHT22;37900;52.996;6.278;2023-07-13T00:09:52;21.70;91.80
51863;DHT22;37900;52.996;6.278;2023-07-13T00:12:29;21.70;91.80
51863;DHT22;37900;52.996;6.278;2023-07-13T00:14:57;21.70;91.70
51863;DHT22;37900;52.996;6.278;2023-07-13T00:17:24;21.70;91.80
51863;DHT22;37900;52.996;6.278;2023-07-13T00:19:49;21.70;91.80
51863;DHT22;37900;52.996;6.278;2023-07-13T00:22:15;21.70;91.80
51863;DHT22;37900;52.996;6.278;2023-07-13T00:24:42;21.70;91.80
51863;DHT22;37900;52.996;6.278;2023-07-13T00:27:12;21.70;91.80
51863;DHT22;37900;52.996;6.278;2023-07-13T00:29:37;21.70;91.80
51863;DHT22;37900;52.996;6.278;2023-07-13T00:32:04;21.70;91.80
51863;DHT22;37900;52.996;6.278;2023-07-13T00:34:30;21.70;91.80
51863;DHT22;37900;52.996;6.278;2023-07-13T00:36:57;21.70;91.80
51863;DHT22;37900;52.996;6.278;2023-07-13T00:39:22;21.70;91.80
51863;DHT22;37900;52.996;6.278;2023-07-13T00:41:49;21.70;91.80
51863;DHT22;37900;52.996;6.278;2023-07-13T00:44:15;21.70;91.80
51863;DHT22;37900;52.996;6.278;2023-07-13T00:46:42;21.70;91.80
51863;DHT22;37900;52.996;6.278;2023-07-13T00:49:11;21.70;91.80
51863;DHT22;37900;52.996;6.278;2023-07-13T00:51:49;21.70;91.80
51863;DHT22;37900;52.996;6.278;2023-07-13T00:54:19;21.70;91.80
51863;DHT22;37900;52.996;6.278;2023-07-13T00:56:49;21.70;91.80
51863;DHT22;37900;52.996;6.278;2023-07-13T00:59:16;21.70;91.80
51863;DHT22;37900;52.996;6.278;2023-07-13T01:01:44;21.70;91.80
51863;DHT22;37900;52.996;6.278;2023-07-13T01:04:10;21.70;91.80
51863;DHT22;37900;52.996;6.278;2023-07-13T01:06:37;21.60;91.80
51863;DHT22;37900;52.996;6.278;2023-07-13T01:09:05;21.60;91.80
51863;DHT22;37900;52.996;6.278;2023-07-13T01:11:31;21.60;91.80
51863;DHT22;37900;52.996;6.278;2023-07-13T01:13:57;21.60;91.80
51863;DHT22;37900;52.996;6.278;2023-07-13T01:16:29;21.60;91.80
51863;DHT22;37900;52.996;6.278;2023-07-13T01:18:56;21.60;91.80
51863;DHT22;37900;52.996;6.278;2023-07-13T01:21:27;21.60;91.80
51863;DHT22;37900;52.996;6.278;2023-07-13T01:23:54;21.60;91.80
51863;DHT22;37900;52.996;6.278;2023-07-13T01:26:20;21.70;91.80
51863;DHT22;37900;52.996;6.278;2023-07-13T01:28:46;21.60;91.80
51863;DHT22;37900;52.996;6.278;2023-07-13T01:31:12;21.60;91.80
51863;DHT22;37900;52.996;6.278;2023-07-13T01:33:39;21.60;91.90
51863;DHT22;37900;52.996;6.278;2023-07-13T01:36:10;21.60;91.80
51863;DHT22;37900;52.996;6.278;2023-07-13T01:38:36;21.60;91.80
51863;DHT22;37900;52.996;6.278;2023-07-13T01:41:03;21.60;91.80
51863;DHT22;37900;52.996;6.278;2023-07-13T01:43:29;21.60;91.80
51863;DHT22;37900;52.996;6.278;2023-07-13T01:45:55;21.60;91.80
51863;DHT22;37900;52.996;6.278;2023-07-13T01:48:21;21.60;91.80
51863;DHT22;37900;52.996;6.278;2023-07-13T01:50:47;21.60;91.80
51863;DHT22;37900;52.996;6.278;2023-07-13T01:53:13;21.60;91.90
51863;DHT22;37900;52.996;6.278;2023-07-13T01:55:39;21.60;91.90
51863;DHT22;37900;52.996;6.278;2023-07-13T01:58:05;21.60;91.90
51863;DHT22;37900;52.996;6.278;2023-07-13T02:00:31;21.60;91.90
51863;DHT22;37900;52.996;6.278;2023-07-13T02:02:56;21.60;91.90
51863;DHT22;37900;52.996;6.278;2023-07-13T02:05:22;21.60;91.90
51863;DHT22;37900;52.996;6.278;2023-07-13T02:07:48;21.60;91.90
51863;DHT22;37900;52.996;6.278;2023-07-13T02:10:14;21.60;91.90
51863;DHT22;37900;52.996;6.278;2023-07-13T02:12:40;21.60;91.90
51863;DHT22;37900;52.996;6.278;2023-07-13T02:15:06;21.60;91.90
51863;DHT22;37900;52.996;6.278;2023-07-13T02:17:34;21.60;91.90
51863;DHT22;37900;52.996;6.278;2023-07-13T02:20:00;21.60;91.90
51863;DHT22;37900;52.996;6.278;2023-07-13T02:22:26;21.70;91.90
51863;DHT22;37900;52.996;6.278;2023-07-13T02:24:51;21.60;91.90
51863;DHT22;37900;52.996;6.278;2023-07-13T02:27:17;21.50;91.90
51863;DHT22;37900;52.996;6.278;2023-07-13T02:29:43;21.50;91.90
51863;DHT22;37900;52.996;6.278;2023-07-13T02:32:08;21.60;91.90
51863;DHT22;37900;52.996;6.278;2023-07-13T02:34:34;21.60;91.90
51863;DHT22;37900;52.996;6.278;2023-07-13T02:37:00;21.50;91.90
51863;DHT22;37900;52.996;6.278;2023-07-13T02:39:26;21.50;91.90
51863;DHT22;37900;52.996;6.278;2023-07-13T02:41:51;21.50;91.90
51863;DHT22;37900;52.996;6.278;2023-07-13T02:44:17;21.50;91.90
51863;DHT22;37900;52.996;6.278;2023-07-13T02:46:43;21.50;91.90
51863;DHT22;37900;52.996;6.278;2023-07-13T02:49:09;21.50;91.90
51863;DHT22;37900;52.996;6.278;2023-07-13T02:51:34;21.50;91.90
51863;DHT22;37900;52.996;6.278;2023-07-13T02:54:02;21.50;91.90
51863;DHT22;37900;52.996;6.278;2023-07-13T02:56:29;21.50;91.90
51863;DHT22;37900;52.996;6.278;2023-07-13T02:58:56;21.50;91.90
51863;DHT22;37900;52.996;6.278;2023-07-13T03:01:22;21.50;91.90
51863;DHT22;37900;52.996;6.278;2023-07-13T03:03:52;21.50;91.90
51863;DHT22;37900;52.996;6.278;2023-07-13T03:06:18;21.50;92.20
51863;DHT22;37900;52.996;6.278;2023-07-13T03:08:44;21.50;91.90
51863;DHT22;37900;52.996;6.278;2023-07-13T03:11:13;21.50;91.90
51863;DHT22;37900;52.996;6.278;2023-07-13T03:13:40;21.50;91.90
51863;DHT22;37900;52.996;6.278;2023-07-13T03:16:07;21.50;91.90
51863;DHT22;37900;52.996;6.278;2023-07-13T03:18:34;21.50;91.90
51863;DHT22;37900;52.996;6.278;2023-07-13T03:21:00;21.50;91.90
51863;DHT22;37900;52.996;6.278;2023-07-13T03:23:26;21.50;91.90
51863;DHT22;37900;52.996;6.278;2023-07-13T03:26:02;21.50;91.90
51863;DHT22;37900;52.996;6.278;2023-07-13T03:28:28;21.50;91.90
51863;DHT22;37900;52.996;6.278;2023-07-13T03:33:27;21.40;91.90
51863;DHT22;37900;52.996;6.278;2023-07-13T03:35:52;21.50;92.00
51863;DHT22;37900;52.996;6.278;2023-07-13T03:38:18;21.40;91.90
51863;DHT22;37900;52.996;6.278;2023-07-13T03:40:45;21.50;92.00
51863;DHT22;37900;52.996;6.278;2023-07-13T03:43:11;21.50;92.00
51863;DHT22;37900;52.996;6.278;2023-07-13T03:45:38;21.40;92.00
51863;DHT22;37900;52.996;6.278;2023-07-13T03:48:03;21.50;92.00
51863;DHT22;37900;52.996;6.278;2023-07-13T03:50:30;21.40;91.90
51863;DHT22;37900;52.996;6.278;2023-07-13T03:52:58;21.40;92.00
51863;DHT22;37900;52.996;6.278;2023-07-13T03:55:23;21.50;92.00
51863;DHT22;37900;52.996;6.278;2023-07-13T03:57:59;21.40;92.00
51863;DHT22;37900;52.996;6.278;2023-07-13T04:00:25;21.50;92.00
51863;DHT22;37900;52.996;6.278;2023-07-13T04:02:51;21.40;92.00
51863;DHT22;37900;52.996;6.278;2023-07-13T04:05:17;21.40;92.00
51863;DHT22;37900;52.996;6.278;2023-07-13T04:07:42;21.40;92.00
51863;DHT22;37900;52.996;6.278;2023-07-13T04:10:08;21.40;92.00
51863;DHT22;37900;52.996;6.278;2023-07-13T04:12:34;21.40;92.00
51863;DHT22;37900;52.996;6.278;2023-07-13T04:15:00;21.40;92.00
51863;DHT22;37900;52.996;6.278;2023-07-13T04:17:26;21.50;92.00
51863;DHT22;37900;52.996;6.278;2023-07-13T04:19:52;21.40;92.00
51863;DHT22;37900;52.996;6.278;2023-07-13T04:22:17;21.40;92.00
51863;DHT22;37900;52.996;6.278;2023-07-13T04:24:43;21.40;92.00
51863;DHT22;37900;52.996;6.278;2023-07-13T04:27:09;21.40;92.00
51863;DHT22;37900;52.996;6.278;2023-07-13T04:29:34;21.50;92.00
51863;DHT22;37900;52.996;6.278;2023-07-13T04:32:00;21.40;92.00
51863;DHT22;37900;52.996;6.278;2023-07-13T04:34:26;21.40;92.00
51863;DHT22;37900;52.996;6.278;2023-07-13T04:36:53;21.40;92.00
51863;DHT22;37900;52.996;6.278;2023-07-13T04:39:18;21.40;92.00
51863;DHT22;37900;52.996;6.278;2023-07-13T04:41:44;21.40;92.00
51863;DHT22;37900;52.996;6.278;2023-07-13T04:44:10;21.40;92.00
51863;DHT22;37900;52.996;6.278;2023-07-13T04:46:35;21.40;92.00
51863;DHT22;37900;52.996;6.278;2023-07-13T04:49:01;21.40;92.00
51863;DHT22;37900;52.996;6.278;2023-07-13T04:51:29;21.40;92.00
51863;DHT22;37900;52.996;6.278;2023-07-13T04:53:55;21.40;92.00
51863;DHT22;37900;52.996;6.278;2023-07-13T04:56:20;21.40;92.10
51863;DHT22;37900;52.996;6.278;2023-07-13T04:58:46;21.40;92.10
51863;DHT22;37900;52.996;6.278;2023-07-13T05:01:12;21.40;92.10
51863;DHT22;37900;52.996;6.278;2023-07-13T05:03:39;21.40;92.10
51863;DHT22;37900;52.996;6.278;2023-07-13T05:06:06;21.40;92.10
51863;DHT22;37900;52.996;6.278;2023-07-13T05:08:33;21.40;92.10
51863;DHT22;37900;52.996;6.278;2023-07-13T05:11:05;21.40;92.10
51863;DHT22;37900;52.996;6.278;2023-07-13T05:13:32;21.40;92.10
51863;DHT22;37900;52.996;6.278;2023-07-13T05:16:03;21.40;92.10
51863;DHT22;37900;52.996;6.278;2023-07-13T05:18:29;21.40;92.10
51863;DHT22;37900;52.996;6.278;2023-07-13T05:21:04;21.40;92.10
51863;DHT22;37900;52.996;6.278;2023-07-13T05:23:31;21.40;92.10
51863;DHT22;37900;52.996;6.278;2023-07-13T05:25:57;21.40;92.20
51863;DHT22;37900;52.996;6.278;2023-07-13T05:28:23;21.40;92.20
51863;DHT22;37900;52.996;6.278;2023-07-13T05:30:49;21.40;92.10
51863;DHT22;37900;52.996;6.278;2023-07-13T05:33:16;21.40;92.20
51863;DHT22;37900;52.996;6.278;2023-07-13T05:35:42;21.40;92.20
51863;DHT22;37900;52.996;6.278;2023-07-13T05:38:08;21.40;92.20
51863;DHT22;37900;52.996;6.278;2023-07-13T05:40:34;21.40;92.20
51863;DHT22;37900;52.996;6.278;2023-07-13T05:42:59;21.40;92.20
51863;DHT22;37900;52.996;6.278;2023-07-13T05:45:25;21.40;92.20
51863;DHT22;37900;52.996;6.278;2023-07-13T05:47:51;21.40;92.20
51863;DHT22;37900;52.996;6.278;2023-07-13T05:50:17;21.40;92.30
51863;DHT22;37900;52.996;6.278;2023-07-13T05:52:42;21.40;92.30
51863;DHT22;37900;52.996;6.278;2023-07-13T05:55:08;21.40;92.30
51863;DHT22;37900;52.996;6.278;2023-07-13T05:57:34;21.40;92.30
51863;DHT22;37900;52.996;6.278;2023-07-13T06:00:00;21.40;92.30
51863;DHT22;37900;52.996;6.278;2023-07-13T06:02:25;21.40;92.30
51863;DHT22;37900;52.996;6.278;2023-07-13T06:04:52;21.40;92.30
51863;DHT22;37900;52.996;6.278;2023-07-13T06:07:17;21.40;92.30
51863;DHT22;37900;52.996;6.278;2023-07-13T06:09:43;21.40;92.30
51863;DHT22;37900;52.996;6.278;2023-07-13T06:12:09;21.50;92.30
51863;DHT22;37900;52.996;6.278;2023-07-13T06:14:35;21.50;92.40
51863;DHT22;37900;52.996;6.278;2023-07-13T06:17:01;21.50;92.40
51863;DHT22;37900;52.996;6.278;2023-07-13T06:19:26;21.50;92.40
51863;DHT22;37900;52.996;6.278;2023-07-13T06:21:52;21.50;92.40
51863;DHT22;37900;52.996;6.278;2023-07-13T06:24:18;21.50;92.40
51863;DHT22;37900;52.996;6.278;2023-07-13T06:26:43;21.50;92.40
51863;DHT22;37900;52.996;6.278;2023-07-13T06:29:09;21.50;92.50
51863;DHT22;37900;52.996;6.278;2023-07-13T06:31:35;21.50;92.50
51863;DHT22;37900;52.996;6.278;2023-07-13T06:34:00;21.50;92.50
51863;DHT22;37900;52.996;6.278;2023-07-13T06:36:26;21.50;92.50
51863;DHT22;37900;52.996;6.278;2023-07-13T06:38:52;21.50;92.60
51863;DHT22;37900;52.996;6.278;2023-07-13T06:41:18;21.50;92.60
51863;DHT22;37900;52.996;6.278;2023-07-13T06:43:43;21.50;92.60
51863;DHT22;37900;52.996;6.278;2023-07-13T06:46:09;21.60;92.90
51863;DHT22;37900;52.996;6.278;2023-07-13T06:48:35;21.60;92.70
51863;DHT22;37900;52.996;6.278;2023-07-13T06:51:02;21.50;92.70
51863;DHT22;37900;52.996;6.278;2023-07-13T06:53:27;21.50;92.70
51863;DHT22;37900;52.996;6.278;2023-07-13T06:55:53;21.50;92.70
51863;DHT22;37900;52.996;6.278;2023-07-13T06:58:19;21.50;92.70
51863;DHT22;37900;52.996;6.278;2023-07-13T07:00:46;21.50;92.80
51863;DHT22;37900;52.996;6.278;2023-07-13T07:03:11;21.50;92.80
51863;DHT22;37900;52.996;6.278;2023-07-13T07:05:37;21.50;92.80
51863;DHT22;37900;52.996;6.278;2023-07-13T07:08:03;21.50;92.80
51863;DHT22;37900;52.996;6.278;2023-07-13T07:10:30;21.50;92.80
51863;DHT22;37900;52.996;6.278;2023-07-13T07:12:57;21.50;92.90
51863;DHT22;37900;52.996;6.278;2023-07-13T07:15:22;21.60;92.90
51863;DHT22;37900;52.996;6.278;2023-07-13T07:17:48;21.60;93.00
51863;DHT22;37900;52.996;6.278;2023-07-13T07:20:14;21.50;93.00
51863;DHT22;37900;52.996;6.278;2023-07-13T07:22:39;21.60;93.10
51863;DHT22;37900;52.996;6.278;2023-07-13T07:25:05;21.60;93.20
51863;DHT22;37900;52.996;6.278;2023-07-13T07:27:31;21.60;93.30
51863;DHT22;37900;52.996;6.278;2023-07-13T07:29:57;21.50;93.60
51863;DHT22;37900;52.996;6.278;2023-07-13T07:32:23;21.60;93.40
51863;DHT22;37900;52.996;6.278;2023-07-13T07:34:49;21.60;93.40
51863;DHT22;37900;52.996;6.278;2023-07-13T07:37:15;21.60;93.40
51863;DHT22;37900;52.996;6.278;2023-07-13T07:39:40;21.60;93.40
51863;DHT22;37900;52.996;6.278;2023-07-13T07:42:07;21.60;93.40
51863;DHT22;37900;52.996;6.278;2023-07-13T07:44:33;21.60;93.40
51863;DHT22;37900;52.996;6.278;2023-07-13T07:46:59;21.60;93.40
51863;DHT22;37900;52.996;6.278;2023-07-13T07:49:25;21.60;93.40
51863;DHT22;37900;52.996;6.278;2023-07-13T07:51:51;21.60;93.40
51863;DHT22;37900;52.996;6.278;2023-07-13T07:54:17;21.60;93.40
51863;DHT22;37900;52.996;6.278;2023-07-13T07:56:43;21.60;93.40
51863;DHT22;37900;52.996;6.278;2023-07-13T07:59:08;21.60;93.40
51863;DHT22;37900;52.996;6.278;2023-07-13T08:01:34;21.60;93.40
51863;DHT22;37900;52.996;6.278;2023-07-13T08:04:00;21.60;93.40
51863;DHT22;37900;52.996;6.278;2023-07-13T08:06:26;21.60;93.40
51863;DHT22;37900;52.996;6.278;2023-07-13T08:08:52;21.60;93.40
51863;DHT22;37900;52.996;6.278;2023-07-13T08:11:18;21.60;93.40
51863;DHT22;37900;52.996;6.278;2023-07-13T08:13:43;21.60;93.40
51863;DHT22;37900;52.996;6.278;2023-07-13T08:16:09;21.60;93.40
51863;DHT22;37900;52.996;6.278;2023-07-13T08:18:35;21.60;93.60
51863;DHT22;37900;52.996;6.278;2023-07-13T08:21:05;21.60;93.40
51863;DHT22;37900;52.996;6.278;2023-07-13T08:23:31;21.50;93.30
51863;DHT22;37900;52.996;6.278;2023-07-13T08:25:57;21.60;93.40
51863;DHT22;37900;52.996;6.278;2023-07-13T08:28:24;21.50;93.30
51863;DHT22;37900;52.996;6.278;2023-07-13T08:30:49;21.60;93.30
51863;DHT22;37900;52.996;6.278;2023-07-13T08:33:19;21.60;93.30
51863;DHT22;37900;52.996;6.278;2023-07-13T08:35:49;21.50;93.30
51863;DHT22;37900;52.996;6.278;2023-07-13T08:38:16;21.50;93.30
51863;DHT22;37900;52.996;6.278;2023-07-13T08:40:43;21.60;93.60
51863;DHT22;37900;52.996;6.278;2023-07-13T08:43:16;21.50;93.30
51863;DHT22;37900;52.996;6.278;2023-07-13T08:46:11;21.60;93.30
51863;DHT22;37900;52.996;6.278;2023-07-13T08:48:47;21.50;93.30
51863;DHT22;37900;52.996;6.278;2023-07-13T08:54:00;21.60;93.30
51863;DHT22;37900;52.996;6.278;2023-07-13T08:56:29;21.50;93.30
51863;DHT22;37900;52.996;6.278;2023-07-13T08:59:03;21.50;93.30
51863;DHT22;37900;52.996;6.278;2023-07-13T09:04:20;21.60;93.30
51863;DHT22;37900;52.996;6.278;2023-07-13T09:09:27;21.50;93.30
51863;DHT22;37900;52.996;6.278;2023-07-13T09:14:41;21.60;93.60
51863;DHT22;37900;52.996;6.278;2023-07-13T09:17:31;21.50;93.30
51863;DHT22;37900;52.996;6.278;2023-07-13T09:20:02;21.50;93.30
51863;DHT22;37900;52.996;6.278;2023-07-13T09:22:32;21.50;93.30
51863;DHT22;37900;52.996;6.278;2023-07-13T09:25:22;21.50;93.30
51863;DHT22;37900;52.996;6.278;2023-07-13T09:27:50;21.50;93.30
51863;DHT22;37900;52.996;6.278;2023-07-13T09:30:32;21.50;93.30
51863;DHT22;37900;52.996;6.278;2023-07-13T09:32:59;21.50;93.30
51863;DHT22;37900;52.996;6.278;2023-07-13T09:35:27;21.50;93.30
51863;DHT22;37900;52.996;6.278;2023-07-13T09:38:18;21.50;93.30
51863;DHT22;37900;52.996;6.278;2023-07-13T09:40:55;21.50;93.40
51863;DHT22;37900;52.996;6.278;2023-07-13T09:43:24;21.50;93.30
51863;DHT22;37900;52.996;6.278;2023-07-13T09:45:50;21.50;93.40
51863;DHT22;37900;52.996;6.278;2023-07-13T09:48:17;21.50;93.30
51863;DHT22;37900;52.996;6.278;2023-07-13T09:50:44;21.50;93.30
51863;DHT22;37900;52.996;6.278;2023-07-13T09:53:18;21.50;93.40
51863;DHT22;37900;52.996;6.278;2023-07-13T09:55:46;21.50;93.40
51863;DHT22;37900;52.996;6.278;2023-07-13T09:58:21;21.50;93.40
51863;DHT22;37900;52.996;6.278;2023-07-13T10:00:56;21.50;93.40
51863;DHT22;37900;52.996;6.278;2023-07-13T10:03:29;21.50;93.40
51863;DHT22;37900;52.996;6.278;2023-07-13T10:06:12;21.50;93.40
51863;DHT22;37900;52.996;6.278;2023-07-13T10:08:38;21.50;93.40
51863;DHT22;37900;52.996;6.278;2023-07-13T10:11:22;21.50;93.50
51863;DHT22;37900;52.996;6.278;2023-07-13T10:13:58;21.50;93.50
51863;DHT22;37900;52.996;6.278;2023-07-13T10:16:35;21.50;93.60
51863;DHT22;37900;52.996;6.278;2023-07-13T10:19:20;21.50;93.70
51863;DHT22;37900;52.996;6.278;2023-07-13T10:22:00;21.60;93.70
51863;DHT22;37900;52.996;6.278;2023-07-13T10:24:31;21.60;93.80
51863;DHT22;37900;52.996;6.278;2023-07-13T10:27:00;21.50;93.80
51863;DHT22;37900;52.996;6.278;2023-07-13T10:29:28;21.50;93.80
51863;DHT22;37900;52.996;6.278;2023-07-13T10:31:54;21.50;93.90
51863;DHT22;37900;52.996;6.278;2023-07-13T10:34:21;21.60;93.90
51863;DHT22;37900;52.996;6.278;2023-07-13T10:36:48;21.50;93.90
51863;DHT22;37900;52.996;6.278;2023-07-13T10:39:19;21.60;94.20
51863;DHT22;37900;52.996;6.278;2023-07-13T10:41:52;21.50;93.90
51863;DHT22;37900;52.996;6.278;2023-07-13T10:44:23;21.60;94.00
51863;DHT22;37900;52.996;6.278;2023-07-13T10:47:06;21.60;94.00
51863;DHT22;37900;52.996;6.278;2023-07-13T10:49:34;21.50;94.00
51863;DHT22;37900;52.996;6.278;2023-07-13T10:52:02;21.60;94.10
51863;DHT22;37900;52.996;6.278;2023-07-13T10:54:32;21.60;94.10
51863;DHT22;37900;52.996;6.278;2023-07-13T10:57:17;21.60;94.10
51863;DHT22;37900;52.996;6.278;2023-07-13T11:02:28;21.60;94.10
51863;DHT22;37900;52.996;6.278;2023-07-13T11:04:56;21.60;94.10
51863;DHT22;37900;52.996;6.278;2023-07-13T11:07:30;21.50;94.10
51863;DHT22;37900;52.996;6.278;2023-07-13T11:10:04;21.60;94.10
51863;DHT22;37900;52.996;6.278;2023-07-13T11:12:53;21.60;94.20
51863;DHT22;37900;52.996;6.278;2023-07-13T11:15:43;21.60;94.10
51863;DHT22;37900;52.996;6.278;2023-07-13T11:18:23;21.60;94.20
51863;DHT22;37900;52.996;6.278;2023-07-13T11:20:50;21.60;94.20
51863;DHT22;37900;52.996;6.278;2023-07-13T11:23:18;21.60;94.20
51863;DHT22;37900;52.996;6.278;2023-07-13T11:25:44;21.60;94.20
51863;DHT22;37900;52.996;6.278;2023-07-13T11:35:48;21.60;94.20
51863;DHT22;37900;52.996;6.278;2023-07-13T11:38:41;21.60;94.20
51863;DHT22;37900;52.996;6.278;2023-07-13T11:41:21;21.60;94.10
51863;DHT22;37900;52.996;6.278;2023-07-13T11:43:53;21.60;94.10
51863;DHT22;37900;52.996;6.278;2023-07-13T11:46:25;21.60;94.10
51863;DHT22;37900;52.996;6.278;2023-07-13T11:48:52;21.60;94.10
51863;DHT22;37900;52.996;6.278;2023-07-13T11:51:25;21.60;94.00
51863;DHT22;37900;52.996;6.278;2023-07-13T11:53:54;21.60;94.00
51863;DHT22;37900;52.996;6.278;2023-07-13T11:56:21;21.50;94.00
51863;DHT22;37900;52.996;6.278;2023-07-13T11:58:53;21.60;94.00
51863;DHT22;37900;52.996;6.278;2023-07-13T12:01:24;21.60;94.00
51863;DHT22;37900;52.996;6.278;2023-07-13T12:03:51;21.60;94.00
51863;DHT22;37900;52.996;6.278;2023-07-13T12:06:44;21.60;93.90
51863;DHT22;37900;52.996;6.278;2023-07-13T12:09:14;21.60;93.90
51863;DHT22;37900;52.996;6.278;2023-07-13T12:11:44;21.60;93.90
51863;DHT22;37900;52.996;6.278;2023-07-13T12:14:17;21.60;93.90
51863;DHT22;37900;52.996;6.278;2023-07-13T12:16:44;21.60;93.90
51863;DHT22;37900;52.996;6.278;2023-07-13T12:19:21;21.60;93.90
51863;DHT22;37900;52.996;6.278;2023-07-13T12:21:48;21.60;93.80
51863;DHT22;37900;52.996;6.278;2023-07-13T12:24:18;21.60;93.90
51863;DHT22;37900;52.996;6.278;2023-07-13T12:26:50;21.60;93.90
51863;DHT22;37900;52.996;6.278;2023-07-13T12:29:17;21.60;93.80
51863;DHT22;37900;52.996;6.278;2023-07-13T12:31:46;21.60;93.80
51863;DHT22;37900;52.996;6.278;2023-07-13T12:34:17;21.60;93.80
51863;DHT22;37900;52.996;6.278;2023-07-13T12:37:00;21.60;93.80
51863;DHT22;37900;52.996;6.278;2023-07-13T12:39:35;21.60;93.80
51863;DHT22;37900;52.996;6.278;2023-07-13T12:42:24;21.60;93.80
51863;DHT22;37900;52.996;6.278;2023-07-13T12:44:56;21.60;93.70
51863;DHT22;37900;52.996;6.278;2023-07-13T12:47:22;21.60;93.70
51863;DHT22;37900;52.996;6.278;2023-07-13T12:49:55;21.60;93.70
51863;DHT22;37900;52.996;6.278;2023-07-13T12:52:29;21.60;93.60
51863;DHT22;37900;52.996;6.278;2023-07-13T12:55:05;21.60;93.60
51863;DHT22;37900;52.996;6.278;2023-07-13T12:57:38;21.60;93.50
51863;DHT22;37900;52.996;6.278;2023-07-13T13:00:06;21.60;93.40
51863;DHT22;37900;52.996;6.278;2023-07-13T13:02:40;21.60;93.50
51863;DHT22;37900;52.996;6.278;2023-07-13T13:05:05;21.60;93.40
51863;DHT22;37900;52.996;6.278;2023-07-13T13:07:31;21.60;93.40
51863;DHT22;37900;52.996;6.278;2023-07-13T13:09:58;21.60;93.30
51863;DHT22;37900;52.996;6.278;2023-07-13T13:12:24;21.60;93.30
51863;DHT22;37900;52.996;6.278;2023-07-13T13:14:52;21.60;93.20
51863;DHT22;37900;52.996;6.278;2023-07-13T13:17:23;21.60;93.20
51863;DHT22;37900;52.996;6.278;2023-07-13T13:19:50;21.60;93.10
51863;DHT22;37900;52.996;6.278;2023-07-13T13:22:20;21.60;93.10
51863;DHT22;37900;52.996;6.278;2023-07-13T13:24:46;21.60;93.10
51863;DHT22;37900;52.996;6.278;2023-07-13T13:27:22;21.60;93.00
51863;DHT22;37900;52.996;6.278;2023-07-13T13:29:50;21.60;93.00
51863;DHT22;37900;52.996;6.278;2023-07-13T13:32:19;21.60;93.00
51863;DHT22;37900;52.996;6.278;2023-07-13T13:34:45;21.60;93.00
51863;DHT22;37900;52.996;6.278;2023-07-13T13:37:18;21.60;93.00
51863;DHT22;37900;52.996;6.278;2023-07-13T13:39:45;21.60;92.90
51863;DHT22;37900;52.996;6.278;2023-07-13T13:42:11;21.60;92.90
51863;DHT22;37900;52.996;6.278;2023-07-13T13:44:36;21.60;92.90
51863;DHT22;37900;52.996;6.278;2023-07-13T13:47:03;21.60;93.00
51863;DHT22;37900;52.996;6.278;2023-07-13T13:49:30;21.60;92.90
51863;DHT22;37900;52.996;6.278;2023-07-13T13:51:56;21.60;93.20
51863;DHT22;37900;52.996;6.278;2023-07-13T13:54:23;21.60;92.90
51863;DHT22;37900;52.996;6.278;2023-07-13T13:56:52;21.60;93.00
51863;DHT22;37900;52.996;6.278;2023-07-13T13:59:18;21.60;93.00
51863;DHT22;37900;52.996;6.278;2023-07-13T14:01:46;21.60;93.00
51863;DHT22;37900;52.996;6.278;2023-07-13T14:04:18;21.60;93.00
51863;DHT22;37900;52.996;6.278;2023-07-13T14:06:44;21.60;93.00
51863;DHT22;37900;52.996;6.278;2023-07-13T14:09:12;21.70;93.00
51863;DHT22;37900;52.996;6.278;2023-07-13T14:11:40;21.60;93.00
51863;DHT22;37900;52.996;6.278;2023-07-13T14:14:19;21.60;93.00
51863;DHT22;37900;52.996;6.278;2023-07-13T14:16:46;21.60;92.90
51863;DHT22;37900;52.996;6.278;2023-07-13T14:19:18;21.60;93.00
51863;DHT22;37900;52.996;6.278;2023-07-13T14:21:44;21.60;93.00
51863;DHT22;37900;52.996;6.278;2023-07-13T14:24:10;21.60;93.00
51863;DHT22;37900;52.996;6.278;2023-07-13T14:26:37;21.60;93.00
51863;DHT22;37900;52.996;6.278;2023-07-13T14:29:13;21.60;93.00
51863;DHT22;37900;52.996;6.278;2023-07-13T14:31:40;21.60;93.00
51863;DHT22;37900;52.996;6.278;2023-07-13T14:34:05;21.60;93.00
51863;DHT22;37900;52.996;6.278;2023-07-13T14:36:37;21.60;93.00
51863;DHT22;37900;52.996;6.278;2023-07-13T14:39:30;21.60;93.00
51863;DHT22;37900;52.996;6.278;2023-07-13T14:41:57;21.60;93.00
51863;DHT22;37900;52.996;6.278;2023-07-13T14:44:28;21.60;93.00
51863;DHT22;37900;52.996;6.278;2023-07-13T14:46:55;21.60;93.00
51863;DHT22;37900;52.996;6.278;2023-07-13T14:49:35;21.60;93.00
51863;DHT22;37900;52.996;6.278;2023-07-13T14:52:17;21.60;93.00
51863;DHT22;37900;52.996;6.278;2023-07-13T14:54:43;21.60;93.00
51863;DHT22;37900;52.996;6.278;2023-07-13T14:57:14;21.60;93.00
51863;DHT22;37900;52.996;6.278;2023-07-13T14:59:40;21.60;93.00
51863;DHT22;37900;52.996;6.278;2023-07-13T15:02:31;21.60;93.00
51863;DHT22;37900;52.996;6.278;2023-07-13T15:04:58;21.60;93.00
51863;DHT22;37900;52.996;6.278;2023-07-13T15:07:24;21.60;93.00
51863;DHT22;37900;52.996;6.278;2023-07-13T15:09:51;21.60;93.10
51863;DHT22;37900;52.996;6.278;2023-07-13T15:12:17;21.60;93.10
51863;DHT22;37900;52.996;6.278;2023-07-13T15:14:43;21.60;93.10
51863;DHT22;37900;52.996;6.278;2023-07-13T15:17:28;21.60;93.10
51863;DHT22;37900;52.996;6.278;2023-07-13T15:19:55;21.60;93.10
51863;DHT22;37900;52.996;6.278;2023-07-13T15:22:21;21.60;93.20
51863;DHT22;37900;52.996;6.278;2023-07-13T15:24:47;21.60;93.20
51863;DHT22;37900;52.996;6.278;2023-07-13T15:27:13;21.60;93.20
51863;DHT22;37900;52.996;6.278;2023-07-13T15:29:39;21.60;93.20
51863;DHT22;37900;52.996;6.278;2023-07-13T15:32:13;21.60;93.20
51863;DHT22;37900;52.996;6.278;2023-07-13T15:34:39;21.70;93.30
51863;DHT22;37900;52.996;6.278;2023-07-13T15:37:15;21.70;93.40
51863;DHT22;37900;52.996;6.278;2023-07-13T15:39:42;21.60;93.30
51863;DHT22;37900;52.996;6.278;2023-07-13T15:42:22;21.70;93.40
51863;DHT22;37900;52.996;6.278;2023-07-13T15:44:48;21.60;93.30
51863;DHT22;37900;52.996;6.278;2023-07-13T15:47:14;21.60;93.40
51863;DHT22;37900;52.996;6.278;2023-07-13T15:49:41;21.70;93.40
51863;DHT22;37900;52.996;6.278;2023-07-13T15:52:17;21.60;93.40
51863;DHT22;37900;52.996;6.278;2023-07-13T15:54:46;21.60;93.40
51863;DHT22;37900;52.996;6.278;2023-07-13T15:57:12;21.70;93.40
51863;DHT22;37900;52.996;6.278;2023-07-13T15:59:38;21.70;93.40
51863;DHT22;37900;52.996;6.278;2023-07-13T16:02:17;21.70;93.50